sensor_id;sensor_type;location;lat;lon;timestamp;temperature;humidity
57466;DHT22;67033;44.984;20.068;2023-02-03T08:38:05;6.50;99.90
57466;DHT22;67033;44.984;20.068;2023-02-03T12:30:53;9.10;76.70
57466;DHT22;67033;44.984;20.068;2023-02-03T12:33:29;9.00;88.10
57466;DHT22;67033;44.984;20.068;2023-02-03T12:36:46;8.90;90.40
57466;DHT22;67033;44.984;20.068;2023-02-03T12:38:57;8.90;89.30
57466;DHT22;67033;44.984;20.068;2023-02-03T12:41:35;8.80;91.50
57466;DHT22;67033;44.984;20.068;2023-02-03T12:44:33;8.80;92.80
57466;DHT22;67033;44.984;20.068;2023-02-03T12:47:10;8.80;92.70
57466;DHT22;67033;44.984;20.068;2023-02-03T12:50:12;8.80;98.90
57466;DHT22;67033;44.984;20.068;2023-02-03T12:57:53;8.60;99.60
57466;DHT22;67033;44.984;20.068;2023-02-03T17:40:04;8.50;99.90
57466;DHT22;67033;44.984;20.068;2023-02-03T17:42:30;7.30;99.90
57466;DHT22;67033;44.984;20.068;2023-02-03T17:44:56;7.30;99.90
57466;DHT22;67033;44.984;20.068;2023-02-03T17:47:24;7.30;99.90
57466;DHT22;67033;44.984;20.068;2023-02-03T17:49:50;7.30;99.90
57466;DHT22;67033;44.984;20.068;2023-02-03T17:52:16;7.30;99.90
57466;DHT22;67033;44.984;20.068;2023-02-03T17:54:42;7.20;99.90
57466;DHT22;67033;44.984;20.068;2023-02-03T18:11:47;7.20;99.90
57466;DHT22;67033;44.984;20.068;2023-02-03T18:14:14;7.10;99.90
57466;DHT22;67033;44.984;20.068;2023-02-03T18:16:41;7.10;99.90
57466;DHT22;67033;44.984;20.068;2023-02-03T18:19:10;7.00;99.90
57466;DHT22;67033;44.984;20.068;2023-02-03T18:21:37;7.10;99.90
57466;DHT22;67033;44.984;20.068;2023-02-03T22:38:04;7.10;99.90
57466;DHT22;67033;44.984;20.068;2023-02-03T22:40:30;6.80;99.90
57466;DHT22;67033;44.984;20.068;2023-02-03T22:42:56;6.80;99.90
57466;DHT22;67033;44.984;20.068;2023-02-03T22:45:22;6.80;99.90
57466;DHT22;67033;44.984;20.068;2023-02-03T22:47:48;6.80;99.90
57466;DHT22;67033;44.984;20.068;2023-02-03T22:50:14;6.80;99.90
57466;DHT22;67033;44.984;20.068;2023-02-03T22:52:40;6.80;99.90
57466;DHT22;67033;44.984;20.068;2023-02-03T22:55:07;6.90;99.90
57466;DHT22;67033;44.984;20.068;2023-02-03T22:57:33;6.90;99.90
57466;DHT22;67033;44.984;20.068;2023-02-03T23:00:00;6.90;99.90
57466;DHT22;67033;44.984;20.068;2023-02-03T23:02:26;6.90;99.90
57466;DHT22;67033;44.984;20.068;2023-02-03T23:04:52;6.80;99.90
57466;DHT22;67033;44.984;20.068;2023-02-03T23:07:18;6.80;99.90
57466;DHT22;67033;44.984;20.068;2023-02-03T23:09:44;6.60;99.90
57466;DHT22;67033;44.984;20.068;2023-02-03T23:12:09;6.70;99.90
57466;DHT22;67033;44.984;20.068;2023-02-03T23:14:35;6.60;99.90
57466;DHT22;67033;44.984;20.068;2023-02-03T23:17:01;6.60;99.90
57466;DHT22;67033;44.984;20.068;2023-02-03T23:19:27;6.60;99.90
57466;DHT22;67033;44.984;20.068;2023-02-03T23:21:53;6.60;99.90
57466;DHT22;67033;44.984;20.068;2023-02-03T23:24:19;6.70;99.90
57466;DHT22;67033;44.984;20.068;2023-02-03T23:26:45;6.80;99.90
57466;DHT22;67033;44.984;20.068;2023-02-03T23:29:11;6.80;99.90
57466;DHT22;67033;44.984;20.068;2023-02-03T23:31:37;6.90;99.90
57466;DHT22;67033;44.984;20.068;2023-02-03T23:34:03;6.90;99.90
57466;DHT22;67033;44.984;20.068;2023-02-03T23:36:47;6.90;99.90
57466;DHT22;67033;44.984;20.068;2023-02-03T23:39:13;6.90;99.90
57466;DHT22;67033;44.984;20.068;2023-02-03T23:41:38;6.90;99.90
57466;DHT22;67033;44.984;20.068;2023-02-03T23:44:04;7.00;99.90
57466;DHT22;67033;44.984;20.068;2023-02-03T23:46:30;7.00;99.90
57466;DHT22;67033;44.984;20.068;2023-02-03T23:48:56;7.00;99.90
57466;DHT22;67033;44.984;20.068;2023-02-03T23:51:22;7.00;99.90
57466;DHT22;67033;44.984;20.068;2023-02-03T23:53:48;7.10;99.90
57466;DHT22;67033;44.984;20.068;2023-02-03T23:56:14;7.10;99.90
57466;DHT22;67033;44.984;20.068;2023-02-03T23:58:39;7.10;99.90
